createdAt,value
2023-03-12T00:02:22.649Z,3.15
2023-03-12T00:04:49.430Z,1.70
2023-03-12T00:07:16.204Z,1.95
2023-03-12T00:09:43.023Z,2.30
2023-03-12T00:12:10.079Z,1.58
2023-03-12T00:14:36.799Z,2.45
2023-03-12T00:17:03.570Z,2.90
2023-03-12T00:19:30.282Z,1.30
2023-03-12T00:21:57.034Z,1.50
2023-03-12T00:24:23.995Z,1.75
2023-03-12T00:26:50.720Z,1.73
2023-03-12T00:29:17.717Z,1.58
2023-03-12T00:31:44.576Z,1.80
2023-03-12T00:34:11.650Z,1.52
2023-03-12T00:36:40.174Z,1.73
2023-03-12T00:39:07.552Z,2.22
2023-03-12T00:41:34.403Z,1.58
2023-03-12T00:44:01.433Z,1.70
2023-03-12T00:46:28.311Z,2.00
2023-03-12T00:48:55.058Z,1.13
2023-03-12T00:51:21.821Z,2.38
2023-03-12T00:53:48.552Z,1.55
2023-03-12T00:56:15.716Z,1.70
2023-03-12T00:58:43.166Z,1.27
2023-03-12T01:01:10.884Z,1.52
2023-03-12T01:03:38.063Z,1.48
2023-03-12T01:06:05.644Z,1.90
2023-03-12T01:08:33.230Z,1.85
2023-03-12T01:11:00.384Z,2.13
2023-03-12T01:13:27.118Z,1.48
2023-03-12T01:15:53.948Z,2.37
2023-03-12T01:18:21.107Z,1.95
2023-03-12T01:20:48.247Z,2.20
2023-03-12T01:23:16.145Z,2.03
2023-03-12T01:25:43.395Z,2.08
2023-03-12T01:28:10.267Z,2.05
2023-03-12T01:30:37.150Z,1.80
2023-03-12T01:33:04.643Z,1.90
2023-03-12T01:35:36.434Z,1.25
2023-03-12T01:38:03.322Z,1.90
2023-03-12T01:40:34.639Z,1.45
2023-03-12T01:43:24.787Z,1.30
2023-03-12T01:46:18.951Z,1.80
2023-03-12T01:48:50.341Z,1.50
2023-03-12T01:51:18.597Z,1.75
2023-03-12T01:53:49.438Z,1.67
2023-03-12T01:56:17.984Z,1.92
2023-03-12T01:58:50.265Z,1.60
2023-03-12T02:01:19.187Z,2.20
2023-03-12T02:03:50.712Z,2.17
2023-03-12T02:06:21.125Z,1.50
2023-03-12T02:08:48.234Z,1.45
2023-03-12T02:11:14.960Z,1.63
2023-03-12T02:13:41.895Z,1.75
2023-03-12T02:16:09.743Z,1.50
2023-03-12T02:18:36.522Z,1.60
2023-03-12T02:21:25.537Z,1.02
2023-03-12T02:24:21.447Z,1.20
2023-03-12T02:26:49.680Z,1.13
2023-03-12T02:29:17.151Z,1.50
2023-03-12T02:31:48.856Z,1.10
2023-03-12T02:34:15.654Z,2.20
2023-03-12T02:36:42.480Z,1.50
2023-03-12T02:39:12.243Z,1.08
2023-03-12T02:41:45.904Z,1.10
2023-03-12T02:44:18.948Z,1.60
2023-03-12T02:46:51.278Z,1.00
2023-03-12T02:49:19.977Z,0.90
2023-03-12T02:51:47.731Z,2.58
2023-03-12T02:54:16.711Z,1.23
2023-03-12T02:56:43.925Z,1.30
2023-03-12T02:59:11.623Z,1.10
2023-03-12T03:01:42.021Z,1.30
2023-03-12T03:04:10.992Z,1.40
2023-03-12T03:06:41.025Z,1.37
2023-03-12T03:09:07.814Z,1.10
2023-03-12T03:11:34.844Z,1.50
2023-03-12T03:14:04.265Z,1.35
2023-03-12T03:16:31.062Z,0.90
2023-03-12T03:18:58.907Z,1.20
2023-03-12T03:21:25.732Z,1.85
2023-03-12T03:23:52.488Z,1.33
2023-03-12T03:26:21.876Z,1.10
2023-03-12T03:28:49.396Z,1.40
2023-03-12T03:31:17.870Z,1.80
2023-03-12T03:33:45.383Z,1.67
2023-03-12T03:36:14.834Z,1.70
2023-03-12T03:38:50.488Z,1.80
2023-03-12T03:41:19.859Z,1.60
2023-03-12T03:43:47.540Z,2.50
2023-03-12T03:46:16.480Z,1.03
2023-03-12T03:48:47.140Z,1.55
2023-03-12T03:51:14.696Z,1.70
2023-03-12T03:53:44.915Z,1.35
2023-03-12T03:56:14.634Z,1.50
2023-03-12T03:58:46.135Z,1.25
2023-03-12T04:01:14.730Z,1.43
2023-03-12T04:03:42.645Z,1.40
2023-03-12T04:06:10.435Z,1.30
2023-03-12T04:08:37.904Z,1.38
2023-03-12T04:11:14.822Z,2.43
2023-03-12T04:13:42.537Z,1.83
2023-03-12T04:16:10.506Z,1.10
2023-03-12T04:18:37.769Z,1.08
2023-03-12T04:21:06.953Z,1.08
2023-03-12T04:23:33.795Z,1.00
2023-03-12T04:26:00.963Z,1.30
2023-03-12T04:28:29.228Z,1.93
2023-03-12T04:31:01.046Z,1.23
2023-03-12T04:33:35.325Z,1.77
2023-03-12T04:36:02.450Z,0.70
2023-03-12T04:38:30.141Z,1.30
2023-03-12T04:41:09.226Z,1.17
2023-03-12T04:43:38.767Z,1.10
2023-03-12T04:46:06.043Z,1.50
2023-03-12T04:48:33.243Z,1.52
2023-03-12T04:51:00.013Z,1.30
2023-03-12T04:53:27.031Z,1.35
2023-03-12T04:55:54.175Z,1.58
2023-03-12T04:58:22.140Z,2.22
2023-03-12T05:00:49.933Z,2.00
2023-03-12T05:03:17.528Z,1.60
2023-03-12T05:05:45.715Z,1.50
2023-03-12T05:08:12.670Z,0.80
2023-03-12T05:10:39.977Z,1.35
2023-03-12T05:13:20.626Z,1.33
2023-03-12T05:15:50.610Z,1.13
2023-03-12T05:18:20.229Z,2.00
2023-03-12T05:20:47.785Z,1.20
2023-03-12T05:23:14.948Z,2.08
2023-03-12T05:25:41.814Z,2.13
2023-03-12T05:28:09.150Z,1.47
2023-03-12T05:30:39.504Z,1.20
2023-03-12T05:33:06.301Z,1.85
2023-03-12T05:35:33.037Z,2.45
2023-03-12T05:37:59.948Z,1.70
2023-03-12T05:40:27.083Z,2.08
2023-03-12T05:42:54.036Z,2.42
2023-03-12T05:45:23.522Z,1.27
2023-03-12T05:47:53.029Z,1.45
2023-03-12T05:50:19.931Z,1.55
2023-03-12T05:52:46.759Z,1.60
2023-03-12T05:55:13.674Z,2.85
2023-03-12T05:57:40.484Z,1.83
2023-03-12T06:00:08.269Z,1.83
2023-03-12T06:02:40.319Z,1.73
2023-03-12T06:05:10.678Z,1.95
2023-03-12T06:07:37.717Z,1.98
2023-03-12T06:10:05.357Z,3.08
2023-03-12T06:12:32.176Z,1.75
2023-03-12T06:14:59.068Z,2.50
2023-03-12T06:17:29.593Z,2.88
2023-03-12T06:19:56.321Z,2.33
2023-03-12T06:22:23.212Z,2.90
2023-03-12T06:24:50.183Z,2.45
2023-03-12T06:27:18.316Z,2.05
2023-03-12T06:29:47.086Z,2.65
2023-03-12T06:32:14.959Z,2.83
2023-03-12T06:34:41.791Z,2.67
2023-03-12T06:37:08.564Z,2.00
2023-03-12T06:39:35.573Z,2.78
2023-03-12T06:42:02.326Z,3.17
2023-03-12T06:44:29.031Z,3.08
2023-03-12T06:46:56.316Z,4.15
2023-03-12T06:49:23.443Z,3.13
2023-03-12T06:51:50.614Z,3.33
2023-03-12T06:54:17.388Z,5.65
2023-03-12T06:56:44.261Z,3.63
2023-03-12T06:59:11.064Z,4.78
2023-03-12T07:01:37.929Z,5.57
2023-03-12T07:04:04.863Z,3.70
2023-03-12T07:06:31.580Z,4.82
2023-03-12T07:08:58.304Z,5.93
2023-03-12T07:11:25.116Z,4.45
2023-03-12T07:13:51.940Z,5.40
2023-03-12T07:16:18.736Z,4.80
2023-03-12T07:18:45.549Z,7.95
2023-03-12T07:21:12.344Z,6.68
2023-03-12T07:23:39.218Z,6.18
2023-03-12T07:26:06.566Z,5.97
2023-03-12T07:28:34.013Z,5.80
2023-03-12T07:31:02.774Z,7.30
2023-03-12T07:33:29.828Z,6.47
2023-03-12T07:35:56.686Z,7.32
2023-03-12T07:38:23.710Z,6.07
2023-03-12T07:40:55.819Z,6.68
2023-03-12T07:43:23.399Z,7.37
2023-03-12T07:45:53.360Z,6.45
2023-03-12T07:48:20.508Z,6.88
2023-03-12T07:50:48.610Z,8.15
2023-03-12T07:53:16.219Z,7.82
2023-03-12T07:55:46.096Z,8.98
2023-03-12T07:58:13.788Z,12.17
2023-03-12T08:00:40.704Z,9.73
2023-03-12T08:03:07.916Z,11.63
2023-03-12T08:05:34.937Z,7.95
2023-03-12T08:08:01.703Z,9.50
2023-03-12T08:10:28.661Z,10.32
2023-03-12T08:12:55.422Z,9.53
2023-03-12T08:15:22.209Z,10.82
2023-03-12T08:17:49.129Z,10.75
2023-03-12T08:20:16.032Z,12.02
2023-03-12T08:22:43.078Z,10.65
2023-03-12T08:25:10.047Z,7.35
2023-03-12T08:27:36.861Z,11.95
2023-03-12T08:30:06.677Z,9.18
2023-03-12T08:32:33.756Z,10.77
2023-03-12T08:35:00.803Z,12.43
2023-03-12T08:37:27.653Z,8.10
2023-03-12T08:39:54.523Z,8.82
2023-03-12T08:42:21.382Z,8.80
2023-03-12T08:44:48.282Z,11.43
2023-03-12T08:47:15.100Z,8.85
2023-03-12T08:49:41.795Z,10.52
2023-03-12T08:52:08.548Z,8.48
2023-03-12T08:54:35.368Z,9.70
2023-03-12T08:57:02.103Z,10.88
2023-03-12T08:59:28.867Z,8.20
2023-03-12T09:01:56.412Z,9.85
2023-03-12T09:04:23.207Z,9.03
2023-03-12T09:06:49.982Z,9.40
2023-03-12T09:09:16.766Z,8.43
2023-03-12T09:11:43.505Z,9.90
2023-03-12T09:16:58.123Z,9.93
2023-03-12T09:19:25.054Z,9.15
2023-03-12T09:21:51.701Z,7.93
2023-03-12T09:24:18.504Z,9.65
2023-03-12T09:26:45.200Z,7.30
2023-03-12T09:29:11.954Z,9.45
2023-03-12T09:31:38.953Z,8.82
2023-03-12T09:34:05.886Z,11.73
2023-03-12T09:36:33.291Z,12.63
2023-03-12T09:39:00.260Z,8.93
2023-03-12T09:41:31.053Z,8.70
2023-03-12T09:44:11.968Z,11.03
2023-03-12T09:46:48.374Z,10.00
2023-03-12T09:49:24.670Z,10.55
2023-03-12T09:51:55.800Z,12.52
2023-03-12T09:54:47.348Z,11.53
2023-03-12T09:57:23.446Z,11.60
2023-03-12T09:59:52.113Z,11.45
2023-03-12T10:02:39.124Z,10.68
2023-03-12T10:05:44.603Z,9.50
2023-03-12T10:08:32.044Z,11.90
2023-03-12T10:11:08.010Z,11.27
2023-03-12T10:14:03.198Z,11.40
2023-03-12T10:16:35.750Z,10.80
2023-03-12T10:19:25.539Z,8.75
2023-03-12T10:21:58.236Z,12.13
2023-03-12T10:24:45.455Z,9.90
2023-03-12T10:27:15.185Z,8.87
2023-03-12T10:29:45.883Z,11.43
2023-03-12T10:32:21.465Z,12.07
2023-03-12T10:34:58.189Z,11.40
2023-03-12T10:37:46.010Z,10.67
2023-03-12T10:40:19.278Z,10.95
2023-03-12T10:42:46.125Z,11.73
2023-03-12T10:45:46.578Z,9.48
2023-03-12T10:48:20.751Z,10.80
2023-03-12T10:51:07.663Z,9.90
2023-03-12T10:53:36.114Z,13.13
2023-03-12T10:56:11.043Z,10.93
2023-03-12T10:58:50.714Z,9.02
2023-03-12T11:01:27.720Z,9.10
2023-03-12T11:04:09.274Z,10.43
2023-03-12T11:06:36.080Z,9.80
2023-03-12T11:09:19.078Z,10.50
2023-03-12T11:11:48.109Z,8.40
2023-03-12T11:14:26.375Z,10.27
2023-03-12T11:16:56.638Z,12.27
2023-03-12T11:19:32.388Z,9.68
2023-03-12T11:22:01.783Z,11.02
2023-03-12T11:24:28.741Z,11.10
2023-03-12T11:27:24.042Z,13.55
2023-03-12T11:29:51.002Z,10.52
2023-03-12T11:32:37.680Z,10.75
2023-03-12T11:35:10.635Z,11.23
2023-03-12T11:38:01.296Z,11.48
2023-03-12T11:40:48.246Z,9.80
2023-03-12T11:43:45.574Z,11.10
2023-03-12T11:46:21.439Z,10.35
2023-03-12T11:48:56.391Z,8.05
2023-03-12T11:51:38.139Z,9.45
2023-03-12T11:54:38.703Z,10.52
2023-03-12T11:57:20.505Z,11.68
2023-03-12T12:00:12.012Z,10.27
2023-03-12T12:02:57.372Z,8.87
2023-03-12T12:05:38.690Z,9.73
2023-03-12T12:08:11.561Z,7.72
2023-03-12T12:10:53.318Z,10.05
2023-03-12T12:13:29.248Z,9.18
2023-03-12T12:16:24.170Z,9.97
2023-03-12T12:18:53.861Z,9.98
2023-03-12T12:21:39.769Z,9.63
2023-03-12T12:24:44.169Z,10.13
2023-03-12T12:27:24.293Z,11.23
2023-03-12T12:30:06.539Z,9.88
2023-03-12T12:33:02.468Z,9.73
2023-03-12T12:35:39.281Z,10.18
2023-03-12T12:38:37.181Z,10.50
2023-03-12T12:41:12.070Z,9.80
2023-03-12T12:43:47.768Z,9.27
2023-03-12T12:46:22.430Z,10.73
2023-03-12T12:48:59.421Z,12.25
2023-03-12T12:51:59.752Z,9.70
2023-03-12T12:54:57.458Z,10.43
2023-03-12T12:57:36.093Z,10.90
2023-03-12T13:00:31.800Z,9.27
2023-03-12T13:02:59.319Z,9.45
2023-03-12T13:05:45.776Z,9.98
2023-03-12T13:08:35.043Z,8.48
2023-03-12T13:11:22.685Z,9.48
2023-03-12T13:14:11.668Z,11.60
2023-03-12T13:16:42.470Z,10.05
2023-03-12T13:19:15.807Z,11.77
2023-03-12T13:22:10.437Z,12.20
2023-03-12T13:24:57.721Z,12.07
2023-03-12T13:27:30.190Z,10.80
2023-03-12T13:29:57.219Z,10.60
2023-03-12T13:32:58.272Z,10.52
2023-03-12T13:35:25.000Z,10.55
2023-03-12T13:37:51.671Z,9.65
2023-03-12T13:40:37.979Z,10.13
2023-03-12T13:43:39.996Z,8.48
2023-03-12T13:46:15.916Z,9.07
2023-03-12T13:48:47.548Z,8.25
2023-03-12T13:51:23.931Z,11.63
2023-03-12T13:53:57.985Z,11.90
2023-03-12T13:56:33.167Z,10.70
2023-03-12T13:59:06.054Z,13.87
2023-03-12T14:01:56.728Z,9.55
2023-03-12T14:04:41.061Z,12.50
2023-03-12T14:07:26.318Z,12.23
2023-03-12T14:10:07.626Z,9.57
2023-03-12T14:12:44.520Z,14.02
2023-03-12T14:15:32.577Z,10.90
2023-03-12T14:18:04.027Z,8.68
2023-03-12T14:20:31.435Z,11.15
2023-03-12T14:23:04.265Z,10.25
2023-03-12T14:25:43.868Z,9.43
2023-03-12T14:28:18.640Z,9.55
2023-03-12T14:30:45.458Z,11.15
2023-03-12T14:33:14.733Z,12.40
2023-03-12T14:35:56.284Z,9.75
2023-03-12T14:38:31.916Z,12.77
2023-03-12T14:41:19.534Z,10.52
2023-03-12T14:43:46.450Z,11.07
2023-03-12T14:46:24.686Z,11.98
2023-03-12T14:48:54.737Z,12.00
2023-03-12T14:51:30.392Z,11.82
2023-03-12T14:54:02.911Z,11.33
2023-03-12T14:56:32.948Z,11.27
2023-03-12T14:59:21.011Z,10.98
2023-03-12T15:01:48.592Z,10.55
2023-03-12T15:04:22.163Z,10.27
2023-03-12T15:06:50.614Z,9.63
2023-03-12T15:09:25.755Z,10.88
2023-03-12T15:11:56.893Z,12.88
2023-03-12T15:14:26.924Z,9.35
2023-03-12T15:16:54.038Z,11.25
2023-03-12T15:19:27.266Z,10.57
2023-03-12T15:21:54.390Z,12.77
2023-03-12T15:24:21.310Z,10.45
2023-03-12T15:26:48.292Z,10.63
2023-03-12T15:29:28.950Z,10.88
2023-03-12T15:32:00.519Z,10.43
2023-03-12T15:34:38.733Z,9.25
2023-03-12T15:37:32.602Z,9.00
2023-03-12T15:40:16.565Z,10.48
2023-03-12T15:42:45.955Z,9.65
2023-03-12T15:45:22.925Z,11.13
2023-03-12T15:47:52.482Z,10.40
2023-03-12T15:50:27.640Z,10.18
2023-03-12T15:53:03.741Z,10.00
2023-03-12T15:55:32.913Z,9.52
2023-03-12T15:58:00.626Z,11.35
2023-03-12T16:00:45.133Z,9.20
2023-03-12T16:03:20.798Z,8.90
2023-03-12T16:05:50.124Z,9.02
2023-03-12T16:08:25.716Z,7.55
2023-03-12T16:10:53.164Z,7.50
2023-03-12T16:13:22.171Z,7.07
2023-03-12T16:15:49.073Z,11.30
2023-03-12T16:18:18.802Z,10.45
2023-03-12T16:20:46.300Z,8.65
2023-03-12T16:23:13.558Z,8.95
2023-03-12T16:25:44.055Z,8.93
2023-03-12T16:28:14.217Z,10.00
2023-03-12T16:30:41.656Z,7.40
2023-03-12T16:33:09.442Z,9.97
2023-03-12T16:35:36.650Z,8.63
2023-03-12T16:38:03.934Z,10.27
2023-03-12T16:40:34.275Z,9.07
2023-03-12T16:43:03.766Z,8.07
2023-03-12T16:45:33.505Z,10.38
2023-03-12T16:48:02.567Z,6.65
2023-03-12T16:50:29.447Z,12.50
2023-03-12T16:52:56.618Z,7.93
2023-03-12T16:55:27.602Z,9.20
2023-03-12T16:57:57.837Z,8.25
2023-03-12T17:00:30.407Z,9.65
2023-03-12T17:02:58.237Z,8.40
2023-03-12T17:05:27.186Z,7.80
2023-03-12T17:07:54.560Z,9.48
2023-03-12T17:10:22.089Z,7.43
2023-03-12T17:12:49.310Z,8.80
2023-03-12T17:15:22.173Z,11.77
2023-03-12T17:17:50.135Z,11.32
2023-03-12T17:20:20.469Z,9.48
2023-03-12T17:22:47.988Z,12.05
2023-03-12T17:25:22.880Z,7.22
2023-03-12T17:27:50.120Z,9.45
2023-03-12T17:30:17.318Z,8.18
2023-03-12T17:32:44.355Z,8.18
2023-03-12T17:35:11.425Z,9.23
2023-03-12T17:37:38.151Z,8.15
2023-03-12T17:40:08.277Z,8.73
2023-03-12T17:42:38.837Z,7.90
2023-03-12T17:45:07.879Z,7.43
2023-03-12T17:47:35.747Z,10.65
2023-03-12T17:50:03.595Z,8.93
2023-03-12T17:52:31.968Z,9.82
2023-03-12T17:54:58.891Z,6.63
2023-03-12T17:57:25.843Z,8.73
2023-03-12T17:59:52.736Z,7.20
2023-03-12T18:02:21.301Z,11.98
2023-03-12T18:04:48.117Z,7.50
2023-03-12T18:07:15.040Z,9.30
2023-03-12T18:09:41.831Z,8.45
2023-03-12T18:12:09.448Z,8.75
2023-03-12T18:14:36.314Z,6.68
2023-03-12T18:17:03.133Z,6.60
2023-03-12T18:19:30.554Z,5.60
2023-03-12T18:21:57.274Z,7.85
2023-03-12T18:24:24.030Z,7.53
2023-03-12T18:26:52.073Z,6.18
2023-03-12T18:29:18.888Z,9.00
2023-03-12T18:31:45.687Z,8.73
2023-03-12T18:34:12.533Z,6.40
2023-03-12T18:36:39.238Z,7.72
2023-03-12T18:39:06.430Z,6.93
2023-03-12T18:41:33.337Z,8.32
2023-03-12T18:44:00.595Z,6.82
2023-03-12T18:46:28.019Z,8.15
2023-03-12T18:48:54.900Z,7.03
2023-03-12T18:51:22.116Z,10.23
2023-03-12T18:53:48.902Z,7.75
2023-03-12T18:56:15.763Z,11.00
2023-03-12T18:58:42.562Z,9.10
2023-03-12T19:01:09.418Z,11.82
2023-03-12T19:03:36.371Z,10.13
2023-03-12T19:06:07.447Z,7.35
2023-03-12T19:08:36.822Z,6.35
2023-03-12T19:11:08.670Z,7.40
2023-03-12T19:13:35.835Z,9.43
2023-03-12T19:16:05.653Z,11.30
2023-03-12T19:18:32.472Z,8.95
2023-03-12T19:20:59.265Z,6.90
2023-03-12T19:23:26.287Z,8.13
2023-03-12T19:25:53.045Z,6.53
2023-03-12T19:28:19.852Z,9.38
2023-03-12T19:30:46.649Z,7.43
2023-03-12T19:33:13.434Z,7.53
2023-03-12T19:35:41.531Z,8.40
2023-03-12T19:38:09.015Z,6.50
2023-03-12T19:40:35.707Z,7.88
2023-03-12T19:43:02.913Z,8.00
2023-03-12T19:45:29.984Z,7.75
2023-03-12T19:47:56.810Z,6.87
2023-03-12T19:50:24.007Z,9.18
2023-03-12T19:52:50.728Z,6.55
2023-03-12T19:55:17.644Z,5.57
2023-03-12T19:57:44.496Z,7.97
2023-03-12T20:00:12.147Z,9.70
2023-03-12T20:02:39.369Z,6.57
2023-03-12T20:05:07.885Z,6.22
2023-03-12T20:07:35.030Z,7.88
2023-03-12T20:10:01.794Z,10.32
2023-03-12T20:12:28.446Z,9.05
2023-03-12T20:14:55.150Z,10.52
2023-03-12T20:17:21.931Z,11.23
2023-03-12T20:19:48.624Z,10.80
2023-03-12T20:22:15.642Z,11.38
2023-03-12T20:24:42.360Z,7.07
2023-03-12T20:27:09.065Z,10.10
2023-03-12T20:29:35.783Z,10.45
2023-03-12T20:32:02.555Z,9.77
2023-03-12T20:34:29.272Z,8.10
2023-03-12T20:36:57.450Z,7.22
2023-03-12T20:39:24.228Z,11.85
2023-03-12T20:41:50.987Z,9.80
2023-03-12T20:44:18.354Z,9.45
2023-03-12T20:46:46.024Z,6.63
2023-03-12T20:49:12.929Z,8.90
2023-03-12T20:51:40.609Z,9.07
2023-03-12T20:54:07.285Z,8.90
2023-03-12T20:56:34.061Z,9.63
2023-03-12T20:59:00.896Z,8.60
2023-03-12T21:01:28.098Z,8.15
2023-03-12T21:03:58.678Z,10.77
2023-03-12T21:06:26.923Z,8.98
2023-03-12T21:08:57.854Z,7.77
2023-03-12T21:11:26.812Z,5.70
2023-03-12T21:13:53.749Z,7.00
2023-03-12T21:16:20.650Z,8.55
2023-03-12T21:18:47.439Z,7.03
2023-03-12T21:21:14.201Z,8.82
2023-03-12T21:23:41.118Z,8.73
2023-03-12T21:26:09.604Z,8.57
2023-03-12T21:28:36.669Z,6.88
2023-03-12T21:31:08.616Z,9.10
2023-03-12T21:33:35.511Z,6.20
2023-03-12T21:36:07.618Z,8.43
2023-03-12T21:38:38.583Z,7.78
2023-03-12T21:41:13.360Z,7.07
2023-03-12T21:43:40.589Z,6.13
2023-03-12T21:46:12.919Z,5.40
2023-03-12T21:48:39.846Z,7.47
2023-03-12T21:51:09.725Z,6.65
2023-03-12T21:53:37.160Z,7.75
2023-03-12T21:56:05.389Z,6.20
2023-03-12T21:58:32.974Z,6.70
2023-03-12T22:01:18.804Z,6.30
2023-03-12T22:03:46.477Z,6.78
2023-03-12T22:06:14.671Z,7.90
2023-03-12T22:08:42.542Z,5.88
2023-03-12T22:11:09.705Z,6.28
2023-03-12T22:13:36.746Z,5.05
2023-03-12T22:16:07.888Z,7.43
2023-03-12T22:18:39.079Z,8.00
2023-03-12T22:21:07.476Z,6.57
2023-03-12T22:23:38.079Z,6.07
2023-03-12T22:26:06.538Z,9.90
2023-03-12T22:28:33.992Z,7.80
2023-03-12T22:31:02.848Z,5.15
2023-03-12T22:33:30.741Z,6.10
2023-03-12T22:35:58.139Z,4.80
2023-03-12T22:38:25.247Z,8.60
2023-03-12T22:40:54.245Z,6.10
2023-03-12T22:43:22.189Z,6.82
2023-03-12T22:45:55.581Z,6.15
2023-03-12T22:48:22.300Z,5.97
2023-03-12T22:50:55.291Z,5.78
2023-03-12T22:53:22.273Z,5.47
2023-03-12T22:56:07.239Z,7.07
2023-03-12T22:58:34.548Z,6.63
2023-03-12T23:01:10.729Z,7.45
2023-03-12T23:03:39.288Z,6.90
2023-03-12T23:06:14.913Z,5.35
2023-03-12T23:08:42.038Z,5.25
2023-03-12T23:11:09.696Z,6.70
2023-03-12T23:13:40.149Z,7.22
2023-03-12T23:16:09.435Z,4.75
2023-03-12T23:18:36.507Z,6.03
2023-03-12T23:21:09.565Z,4.97
2023-03-12T23:23:39.314Z,5.80
2023-03-12T23:26:06.562Z,4.87
2023-03-12T23:28:33.308Z,6.32
2023-03-12T23:31:05.308Z,4.82
2023-03-12T23:33:33.515Z,5.65
2023-03-12T23:36:09.403Z,4.72
2023-03-12T23:38:37.705Z,6.60
2023-03-12T23:41:19.965Z,5.20
2023-03-12T23:43:47.125Z,6.28
2023-03-12T23:46:16.755Z,5.82
2023-03-12T23:48:45.443Z,6.40
2023-03-12T23:51:14.718Z,4.93
2023-03-12T23:53:43.142Z,6.20
2023-03-12T23:56:14.614Z,4.15
2023-03-12T23:58:41.658Z,4.88
